Time;durP1;ratioP1;P1;durP2;ratioP2;P2;SDS_P1;SDS_P2;PMS_P1;PMS_P2;Temp;Humidity;BMP_temperature;BMP_pressure;BME280_temperature;BME280_humidity;BME280_pressure;Samples;Min_cycle;Max_cycle;Signal;HPM_P1;HPM_P2
2022/05/21 00:01:06;;;;;;;8.40;7.60;;;;;;;20.77;61.04;100541.06;5085270;28;20036;-49
2022/05/21 00:03:32;;;;;;;9.77;7.80;;;;;;;20.70;61.13;100552.34;5087601;28;20792;-51
2022/05/21 00:05:57;;;;;;;9.85;7.65;;;;;;;20.65;60.88;100557.31;5081175;28;20403;-51
2022/05/21 00:08:23;;;;;;;9.05;7.88;;;;;;;20.59;61.23;100557.13;5076133;28;20036;-48
2022/05/21 00:10:49;;;;;;;9.48;7.60;;;;;;;20.52;61.56;100570.28;5078423;28;20043;-50
2022/05/21 00:13:14;;;;;;;11.10;9.82;;;;;;;20.40;61.66;100543.84;5078452;28;20032;-50
2022/05/21 00:15:41;;;;;;;16.73;12.32;;;;;;;20.31;61.83;100568.00;5076384;28;20028;-49
2022/05/21 00:18:06;;;;;;;15.00;12.80;;;;;;;20.24;62.19;100562.44;5082642;28;20036;-49
2022/05/21 00:20:47;;;;;;;14.25;11.63;;;;;;;20.14;62.58;100551.84;5080308;28;20133;-48
2022/05/21 00:23:16;;;;;;;11.48;9.50;;;;;;;20.06;62.66;100546.47;5079809;28;20033;-48
2022/05/21 00:25:44;;;;;;;9.00;8.10;;;;;;;19.99;62.87;100548.91;5085404;28;20501;-48
2022/05/21 00:28:10;;;;;;;7.88;7.07;;;;;;;19.89;62.84;100550.84;5075524;28;20039;-48
2022/05/21 00:30:36;;;;;;;7.60;6.45;;;;;;;19.80;62.57;100550.72;5081576;28;20024;-50
2022/05/21 00:33:03;;;;;;;6.72;6.03;;;;;;;19.75;62.40;100549.50;5077406;28;20072;-47
2022/05/21 00:35:28;;;;;;;6.45;4.50;;;;;;;19.62;62.02;100553.41;5083457;28;20031;-48
2022/05/21 00:37:54;;;;;;;5.47;4.63;;;;;;;19.46;61.58;100550.59;5081533;28;20377;-51
2022/05/21 00:40:21;;;;;;;4.20;3.83;;;;;;;19.40;61.06;100568.03;5078707;28;20031;-49
2022/05/21 00:42:48;;;;;;;5.80;3.15;;;;;;;19.24;60.83;100605.19;5079142;28;20032;-49
2022/05/21 00:45:14;;;;;;;9.20;3.13;;;;;;;19.00;61.19;100574.56;5076891;28;20124;-50
2022/05/21 00:47:40;;;;;;;4.28;3.00;;;;;;;18.93;61.10;100589.47;5078842;28;20027;-48
2022/05/21 00:50:09;;;;;;;4.43;2.70;;;;;;;18.93;60.80;100594.78;5079219;28;20515;-51
2022/05/21 00:52:36;;;;;;;4.27;2.37;;;;;;;18.87;60.33;100597.03;5078528;28;20036;-49
2022/05/21 00:55:08;;;;;;;3.03;2.58;;;;;;;18.72;60.32;100582.50;5085405;28;20297;-49
2022/05/21 00:57:35;;;;;;;6.43;2.50;;;;;;;18.66;60.45;100591.13;5078189;28;20030;-49
2022/05/21 01:00:13;;;;;;;4.60;2.25;;;;;;;18.64;60.32;100611.72;5082289;28;20122;-49
2022/05/21 01:02:42;;;;;;;5.40;2.28;;;;;;;18.50;60.26;100599.69;5080714;28;20150;-48
2022/05/21 01:05:11;;;;;;;3.22;2.17;;;;;;;18.43;60.21;100620.75;5078018;28;20123;-48
2022/05/21 01:07:38;;;;;;;3.45;1.98;;;;;;;18.38;60.22;100636.28;5077549;28;20105;-48
2022/05/21 01:10:05;;;;;;;7.07;1.70;;;;;;;18.32;59.97;100644.88;5084229;28;20090;-48
2022/05/21 01:12:36;;;;;;;2.10;1.73;;;;;;;18.26;60.09;100623.16;5080669;28;20028;-48
2022/05/21 01:15:09;;;;;;;5.65;1.80;;;;;;;18.31;59.76;100621.88;5078488;28;20058;-47
2022/05/21 01:17:35;;;;;;;2.67;1.90;;;;;;;18.31;59.87;100632.53;5079172;28;20029;-49
2022/05/21 01:20:04;;;;;;;3.33;1.73;;;;;;;18.32;59.75;100636.88;5075389;28;20036;-48
2022/05/21 01:22:41;;;;;;;1.90;1.45;;;;;;;18.33;59.33;100646.56;5080029;28;20430;-50
2022/05/21 01:25:07;;;;;;;1.50;1.35;;;;;;;18.32;58.90;100645.69;5083098;28;20127;-47
2022/05/21 01:27:33;;;;;;;1.30;1.20;;;;;;;18.27;58.84;100658.63;5082260;28;20028;-49
2022/05/21 01:30:03;;;;;;;2.17;1.20;;;;;;;18.23;58.56;100668.69;5080029;28;20605;-48
2022/05/21 01:32:28;;;;;;;1.85;1.13;;;;;;;18.22;58.62;100661.72;5080710;28;20031;-48
2022/05/21 01:34:56;;;;;;;1.67;1.23;;;;;;;18.25;58.45;100658.75;5077793;28;20082;-49
2022/05/21 01:37:22;;;;;;;1.75;1.20;;;;;;;18.25;58.36;100704.03;5076566;28;20029;-48
2022/05/21 01:39:47;;;;;;;1.13;0.90;;;;;;;18.21;57.55;100661.84;5082966;28;20052;-49
2022/05/21 01:42:13;;;;;;;4.28;1.95;;;;;;;18.15;57.28;100681.88;5086217;28;20175;-49
2022/05/21 01:44:38;;;;;;;3.53;1.85;;;;;;;18.09;57.12;100672.63;5079585;28;20046;-49
2022/05/21 01:47:10;;;;;;;9.23;3.72;;;;;;;18.07;57.00;100737.66;5081974;28;20039;-47
2022/05/21 01:49:36;;;;;;;3.13;1.08;;;;;;;18.04;56.91;100682.03;5085210;28;20032;-48
2022/05/21 01:52:03;;;;;;;1.40;0.93;;;;;;;18.01;56.96;100685.78;5081516;28;20082;-48
2022/05/21 01:54:30;;;;;;;3.53;1.10;;;;;;;17.97;57.00;100687.88;5080817;28;20077;-48
2022/05/21 01:56:56;;;;;;;2.70;0.73;;;;;;;17.85;56.91;100718.25;5077937;28;20477;-47
2022/05/21 01:59:21;;;;;;;3.28;1.00;;;;;;;17.83;57.04;100714.88;5083729;28;20032;-48
2022/05/21 02:01:48;;;;;;;5.28;0.85;;;;;;;17.73;57.20;100719.34;5083390;28;20032;-47
2022/05/21 02:04:14;;;;;;;1.67;1.00;;;;;;;17.51;58.00;100732.72;5080054;28;20056;-52
2022/05/21 02:06:40;;;;;;;5.50;0.90;;;;;;;17.45;58.22;100727.09;5078724;28;20101;-50
2022/05/21 02:09:05;;;;;;;3.58;0.77;;;;;;;17.40;58.17;100719.50;5087135;28;20396;-49
2022/05/21 02:11:31;;;;;;;1.58;0.93;;;;;;;17.33;58.27;100729.81;5083215;28;20042;-48
2022/05/21 02:13:57;;;;;;;2.88;0.80;;;;;;;17.35;57.88;100757.13;5082248;28;20513;-48
2022/05/21 02:16:22;;;;;;;1.17;0.63;;;;;;;17.33;57.27;100745.78;5079344;28;20043;-50
2022/05/21 02:18:48;;;;;;;1.05;0.80;;;;;;;17.28;57.09;100747.16;5081205;28;20054;-49
2022/05/21 02:21:13;;;;;;;104.88;28.83;;;;;;;17.29;57.04;100780.75;5079555;28;20028;-49
2022/05/21 02:23:39;;;;;;;730.50;211.95;;;;;;;17.24;55.76;100807.75;5080129;28;20084;-49
2022/05/21 02:26:05;;;;;;;337.77;102.25;;;;;;;17.25;55.31;100772.19;5083262;28;20040;-49
2022/05/21 02:28:31;;;;;;;375.15;110.10;;;;;;;17.18;55.17;100771.88;5081443;28;20031;-48
2022/05/21 02:30:56;;;;;;;574.58;154.85;;;;;;;17.18;54.72;100797.63;5082653;28;20021;-49
2022/05/21 02:33:22;;;;;;;427.05;116.38;;;;;;;17.09;54.03;100777.16;5079548;28;20111;-48
2022/05/21 02:35:47;;;;;;;683.15;201.65;;;;;;;17.01;53.91;100783.97;5083967;28;20028;-49
2022/05/21 02:40:56;;;;;;;821.45;222.13;;;;;;;16.85;53.48;100820.75;5089829;28;20046;-49
2022/05/21 02:43:22;;;;;;;921.13;242.98;;;;;;;16.83;53.45;100815.53;5079925;28;21554;-49
2022/05/21 02:45:48;;;;;;;1289.53;366.10;;;;;;;16.73;53.48;100822.59;5085098;28;20039;-49
2022/05/21 02:48:14;;;;;;;548.42;154.52;;;;;;;16.71;52.95;100804.09;5079901;28;20404;-49
2022/05/21 02:50:39;;;;;;;665.88;175.80;;;;;;;16.62;53.29;100815.50;5080847;28;20107;-52
2022/05/21 02:53:13;;;;;;;176.07;64.15;;;;;;;16.51;53.62;100808.41;5080548;28;20488;-52
2022/05/21 02:55:38;;;;;;;6.63;2.40;;;;;;;16.50;53.65;100824.47;5082120;28;20066;-50
2022/05/21 02:58:04;;;;;;;56.10;24.20;;;;;;;16.36;54.15;100818.50;5085026;28;20067;-49
2022/05/21 03:00:31;;;;;;;3.28;1.08;;;;;;;16.46;54.06;100838.00;5086159;28;20055;-50
2022/05/21 03:02:59;;;;;;;15.60;9.25;;;;;;;16.49;54.08;100852.00;5088434;28;20449;-49
2022/05/21 03:05:25;;;;;;;35.85;15.07;;;;;;;16.46;54.18;100843.31;5081252;28;20043;-49
2022/05/21 03:07:52;;;;;;;1.02;0.93;;;;;;;16.53;54.19;100837.53;5083265;28;20480;-48
2022/05/21 03:10:21;;;;;;;87.65;42.40;;;;;;;16.59;54.02;100858.25;5088438;28;20063;-48
2022/05/21 03:13:01;;;;;;;731.30;202.82;;;;;;;16.57;53.88;100854.88;5085829;28;20031;-49
2022/05/21 03:15:34;;;;;;;330.85;95.03;;;;;;;16.52;53.76;100873.00;5085435;28;20085;-51
2022/05/21 03:18:00;;;;;;;573.97;153.68;;;;;;;16.50;53.50;100865.16;5089396;28;20039;-48
2022/05/21 03:20:26;;;;;;;7.20;1.50;;;;;;;16.49;53.52;100868.78;5083558;28;20028;-50
2022/05/21 03:22:51;;;;;;;4.68;1.52;;;;;;;16.49;53.54;100876.75;5082250;28;20031;-49
2022/05/21 03:25:17;;;;;;;1.52;1.15;;;;;;;16.40;53.93;100866.88;5082870;28;20053;-51
2022/05/21 03:27:42;;;;;;;4.10;1.20;;;;;;;16.38;53.79;100882.94;5089759;28;20043;-46
2022/05/21 03:30:11;;;;;;;207.57;77.43;;;;;;;16.35;53.71;100872.56;5075319;28;20097;-45
2022/05/21 03:32:37;;;;;;;492.48;139.38;;;;;;;16.25;53.92;100903.47;5074726;28;20434;-48
2022/05/21 03:35:03;;;;;;;1108.68;278.30;;;;;;;16.16;54.02;100894.44;5077464;28;20025;-46
2022/05/21 03:37:29;;;;;;;1251.55;302.75;;;;;;;16.10;53.91;100890.44;5079099;28;20436;-55
2022/05/21 03:39:54;;;;;;;1260.95;307.65;;;;;;;16.14;54.00;100886.56;5085571;28;20024;-51
2022/05/21 03:42:20;;;;;;;1284.05;308.23;;;;;;;16.21;53.89;100896.72;5082544;28;20024;-47
2022/05/21 03:44:46;;;;;;;1371.25;319.23;;;;;;;16.22;53.74;100898.41;5077109;28;20666;-52
2022/05/21 03:47:12;;;;;;;1257.00;297.27;;;;;;;16.09;54.07;100910.00;5080103;28;20051;-53
2022/05/21 03:49:38;;;;;;;1491.80;338.45;;;;;;;16.10;54.00;100930.28;5080775;28;20035;-46
2022/05/21 03:52:06;;;;;;;744.13;199.88;;;;;;;16.08;53.88;100956.09;5084260;28;20330;-55
2022/05/21 03:54:32;;;;;;;999.65;262.65;;;;;;;16.10;53.77;100935.56;5079281;28;20047;-45
2022/05/21 03:56:59;;;;;;;1138.25;299.33;;;;;;;16.10;53.70;100927.63;5088354;28;20031;-48
2022/05/21 03:59:24;;;;;;;1317.50;391.20;;;;;;;16.10;53.69;100943.53;5083691;28;20044;-48
2022/05/21 04:01:49;;;;;;;879.67;221.40;;;;;;;16.05;53.97;100966.94;5084032;28;20027;-47
2022/05/21 04:04:15;;;;;;;1361.22;330.08;;;;;;;16.06;54.08;100952.69;5081658;28;20177;-46
2022/05/21 04:06:41;;;;;;;1641.88;378.50;;;;;;;16.05;54.02;100939.53;5083180;28;20032;-48
2022/05/21 04:09:06;;;;;;;742.37;191.90;;;;;;;16.06;54.45;100965.09;5084231;28;20405;-47
2022/05/21 04:11:32;;;;;;;900.67;250.95;;;;;;;16.04;54.58;100991.78;5090842;28;20054;-47
2022/05/21 04:13:57;;;;;;;922.47;256.88;;;;;;;16.06;54.50;100970.41;5080882;28;20032;-46
2022/05/21 04:16:23;;;;;;;1068.72;270.77;;;;;;;16.05;54.67;100980.19;5081907;28;20044;-47
2022/05/21 04:18:48;;;;;;;1083.90;275.92;;;;;;;15.85;55.38;100982.56;5076183;28;20405;-48
2022/05/21 04:21:14;;;;;;;1315.13;327.20;;;;;;;15.81;55.51;100980.25;5078357;28;20468;-47
2022/05/21 04:23:39;;;;;;;1005.70;251.90;;;;;;;15.86;56.04;100983.44;5082554;28;20487;-48
2022/05/21 04:26:05;;;;;;;1126.60;290.40;;;;;;;15.76;56.51;101020.41;5082876;28;20059;-48
2022/05/21 04:28:30;;;;;;;1636.65;451.90;;;;;;;15.67;56.82;100989.22;5080752;28;20032;-46
2022/05/21 04:30:56;;;;;;;878.25;235.82;;;;;;;15.70;59.05;100996.97;5081379;28;20426;-48
2022/05/21 04:33:21;;;;;;;1144.63;305.33;;;;;;;15.62;58.47;100999.38;5075943;28;20445;-49
2022/05/21 04:38:35;;;;;;;524.85;152.75;;;;;;;15.62;57.46;101076.28;5086505;28;20402;-46
2022/05/21 04:41:01;;;;;;;289.13;82.10;;;;;;;15.64;57.52;101031.94;5088013;28;20059;-47
2022/05/21 04:43:26;;;;;;;1.80;1.40;;;;;;;15.52;57.29;101029.22;5082734;28;20046;-46
2022/05/21 04:45:54;;;;;;;2.13;1.35;;;;;;;15.41;57.21;101026.50;5079402;28;20032;-48
2022/05/21 04:48:20;;;;;;;3.95;0.93;;;;;;;15.39;56.60;101039.03;5083580;28;20040;-46
2022/05/21 04:50:45;;;;;;;2.55;0.90;;;;;;;15.35;56.36;101038.41;5075870;28;20036;-46
2022/05/21 04:53:11;;;;;;;4.68;1.55;;;;;;;15.34;56.23;101054.44;5086017;28;20036;-47
2022/05/21 04:55:36;;;;;;;1.67;0.90;;;;;;;15.28;56.30;101044.28;5077961;28;20036;-46
2022/05/21 04:58:02;;;;;;;1.13;1.02;;;;;;;15.33;55.92;101063.38;5081894;28;20097;-47
2022/05/21 05:00:28;;;;;;;1.67;0.93;;;;;;;15.42;55.69;101062.69;5075607;28;20035;-46
2022/05/21 05:02:53;;;;;;;4.63;0.98;;;;;;;15.46;55.30;101056.19;5081462;28;20024;-48
2022/05/21 05:05:19;;;;;;;1.08;0.95;;;;;;;15.44;54.89;101063.41;5083371;28;20031;-46
2022/05/21 05:07:44;;;;;;;1.73;0.80;;;;;;;15.29;55.11;101062.72;5081104;28;20501;-47
2022/05/21 05:10:10;;;;;;;2.10;1.00;;;;;;;15.26;54.83;101075.34;5080033;28;20028;-48
2022/05/21 05:12:35;;;;;;;2.05;0.70;;;;;;;15.32;54.57;101091.66;5077209;28;20029;-47
2022/05/21 05:15:01;;;;;;;1.63;0.70;;;;;;;15.30;54.33;101082.13;5079504;28;20035;-47
2022/05/21 05:17:27;;;;;;;2.33;0.60;;;;;;;15.30;53.99;101088.28;5074423;28;20380;-47
2022/05/21 05:19:54;;;;;;;0.75;0.63;;;;;;;15.31;53.66;101102.38;5088921;28;20032;-46
2022/05/21 05:22:21;;;;;;;2.95;0.80;;;;;;;15.39;53.56;101092.06;5078143;28;20073;-46
2022/05/21 05:24:47;;;;;;;2.08;0.75;;;;;;;15.46;53.35;101098.63;5079180;28;20502;-47
2022/05/21 05:27:12;;;;;;;1.13;0.70;;;;;;;15.49;53.35;101108.16;5085366;28;20040;-47
2022/05/21 05:29:37;;;;;;;3.40;0.68;;;;;;;15.49;53.25;101113.47;5083623;28;20028;-46
2022/05/21 05:32:04;;;;;;;3.20;0.95;;;;;;;15.54;52.88;101117.47;5076916;28;20041;-46
2022/05/21 05:34:30;;;;;;;1.48;0.68;;;;;;;15.51;52.39;101123.00;5079299;28;20028;-46
2022/05/21 05:36:55;;;;;;;3.97;0.85;;;;;;;15.46;51.89;101129.59;5081819;28;20074;-46
2022/05/21 05:39:21;;;;;;;1.55;0.80;;;;;;;15.45;51.73;101135.84;5083623;28;20080;-47
2022/05/21 05:41:47;;;;;;;4.30;1.15;;;;;;;15.33;51.19;101130.47;5079498;28;20020;-48
2022/05/21 05:44:13;;;;;;;1.85;0.70;;;;;;;15.23;51.08;101156.78;5076047;28;20024;-47
2022/05/21 05:46:38;;;;;;;1.55;0.98;;;;;;;15.20;50.87;101140.25;5086002;28;20514;-47
2022/05/21 05:49:04;;;;;;;1.42;0.80;;;;;;;15.14;51.38;101124.78;5082889;28;20512;-49
2022/05/21 05:51:29;;;;;;;2.97;1.00;;;;;;;15.12;50.66;101132.84;5080129;28;20036;-46
2022/05/21 05:53:55;;;;;;;6.60;1.13;;;;;;;14.94;51.04;101151.75;5102659;28;20052;-46
2022/05/21 05:56:21;;;;;;;3.22;1.10;;;;;;;14.98;51.35;101191.28;5086341;28;20039;-46
2022/05/21 06:01:31;;;;;;;10.52;1.27;;;;;;;15.02;51.68;101151.22;5087094;28;20032;-47
2022/05/21 06:03:57;;;;;;;2.40;1.38;;;;;;;15.00;51.82;101139.88;5076770;28;20024;-46
2022/05/21 06:06:22;;;;;;;4.10;1.30;;;;;;;15.01;51.81;101156.63;5086529;28;20059;-50
2022/05/21 06:08:48;;;;;;;2.97;1.50;;;;;;;15.01;52.19;101168.06;5084874;28;20571;-48
2022/05/21 06:11:15;;;;;;;4.57;1.60;;;;;;;14.92;52.41;101193.41;5085342;28;20047;-47
2022/05/21 06:13:41;;;;;;;7.13;1.63;;;;;;;14.98;52.60;101196.59;5082791;28;20027;-47
2022/05/21 06:16:07;;;;;;;6.10;1.35;;;;;;;15.02;52.06;101176.88;5087504;28;20649;-48
2022/05/21 06:18:33;;;;;;;6.40;1.50;;;;;;;15.08;52.48;101189.69;5083207;28;20028;-46
2022/05/21 06:21:01;;;;;;;9.65;1.60;;;;;;;15.12;52.24;101222.97;5076142;28;20155;-48
2022/05/21 06:23:26;;;;;;;3.65;1.30;;;;;;;15.08;51.87;101176.44;5078111;28;20026;-48
2022/05/21 06:25:52;;;;;;;4.00;1.58;;;;;;;15.04;52.10;101172.31;5081682;28;20387;-47
2022/05/21 06:28:18;;;;;;;2.35;1.50;;;;;;;15.08;52.03;101172.00;5086631;28;20419;-47
2022/05/21 06:30:45;;;;;;;3.72;1.20;;;;;;;15.12;51.88;101175.25;5087708;28;20051;-47
2022/05/21 06:33:13;;;;;;;6.95;1.40;;;;;;;15.19;51.96;101155.34;5090088;28;20070;-46
2022/05/21 06:35:39;;;;;;;4.68;1.27;;;;;;;15.31;51.69;101197.84;5087797;28;20024;-46
2022/05/21 06:38:05;;;;;;;3.25;1.33;;;;;;;15.39;52.02;101171.59;5085692;28;20040;-46
2022/05/21 06:40:30;;;;;;;4.68;2.03;;;;;;;15.39;52.08;101182.22;5085417;28;20407;-49
2022/05/21 06:43:00;;;;;;;3.30;1.30;;;;;;;15.40;51.99;101165.34;5083128;28;20036;-47
2022/05/21 06:45:29;;;;;;;7.13;1.50;;;;;;;15.45;51.81;101171.19;5080564;28;20078;-49
2022/05/21 06:48:00;;;;;;;3.83;1.47;;;;;;;15.50;51.49;101179.63;5085811;28;20067;-47
2022/05/21 06:50:25;;;;;;;2.88;1.25;;;;;;;15.55;51.51;101174.84;5076453;28;20365;-46
2022/05/21 06:52:51;;;;;;;4.20;1.40;;;;;;;15.42;51.91;101179.34;5072519;28;20050;-49
2022/05/21 06:55:16;;;;;;;2.65;1.42;;;;;;;15.43;51.85;101247.34;5084094;28;20050;-49
2022/05/21 06:57:42;;;;;;;3.92;1.30;;;;;;;15.32;51.80;101202.19;5083303;28;20047;-50
2022/05/21 07:00:08;;;;;;;4.50;1.05;;;;;;;15.24;51.96;101177.03;5086958;28;20036;-48
2022/05/21 07:02:33;;;;;;;4.68;1.30;;;;;;;15.37;51.68;101189.44;5085398;28;20443;-48
2022/05/21 07:07:45;;;;;;;4.95;1.23;;;;;;;15.51;51.61;101197.25;5072107;28;20039;-47
2022/05/21 07:10:25;;;;;;;2.85;1.30;;;;;;;15.59;51.49;101198.50;5079781;28;20044;-47
2022/05/21 07:12:51;;;;;;;1.75;1.00;;;;;;;15.68;51.50;101192.53;5074593;28;20029;-47
2022/05/21 07:15:17;;;;;;;4.38;1.30;;;;;;;15.77;51.10;101189.22;5076909;28;20040;-45
2022/05/21 07:17:45;;;;;;;4.72;1.30;;;;;;;15.80;50.87;101185.50;5085453;28;20039;-46
2022/05/21 07:20:17;;;;;;;3.70;1.10;;;;;;;15.82;50.47;101195.03;5076481;28;20500;-46
2022/05/21 07:22:44;;;;;;;2.38;1.00;;;;;;;15.84;50.28;101179.84;5076406;28;20097;-48
2022/05/21 07:25:12;;;;;;;3.55;1.20;;;;;;;15.85;50.44;101210.78;5079229;28;21111;-49
2022/05/21 07:27:39;;;;;;;3.97;1.10;;;;;;;15.94;49.88;101181.88;5078830;28;20129;-46
2022/05/21 07:30:05;;;;;;;4.82;1.17;;;;;;;15.87;49.91;101180.63;5073363;28;20093;-46
2022/05/21 07:32:31;;;;;;;3.03;0.98;;;;;;;15.94;50.24;101187.19;5078424;28;20030;-46
2022/05/21 07:35:06;;;;;;;3.50;1.10;;;;;;;16.10;50.15;101219.59;5088356;28;20036;-49
2022/05/21 07:37:32;;;;;;;7.55;1.63;;;;;;;16.22;50.02;101204.56;5082553;28;20511;-47
2022/05/21 07:39:58;;;;;;;5.28;1.10;;;;;;;16.30;49.68;101214.59;5073275;28;20037;-46
2022/05/21 07:42:24;;;;;;;3.75;1.30;;;;;;;16.35;49.25;101212.47;5074312;28;20039;-49
2022/05/21 07:44:49;;;;;;;5.05;1.52;;;;;;;16.40;49.27;101231.56;5072558;28;20111;-47
2022/05/21 07:47:15;;;;;;;9.07;1.50;;;;;;;16.40;49.21;101230.69;5073023;28;20032;-47
2022/05/21 07:49:41;;;;;;;2.47;1.10;;;;;;;16.40;49.26;101220.94;5079615;28;20056;-47
2022/05/21 07:52:07;;;;;;;3.70;1.45;;;;;;;16.45;49.50;101216.13;5073720;28;20036;-50
2022/05/21 07:54:32;;;;;;;5.63;1.33;;;;;;;16.49;49.59;101218.53;5072258;28;20040;-46
2022/05/21 07:56:59;;;;;;;3.42;1.33;;;;;;;16.49;49.39;101224.69;5073446;28;20085;-48
2022/05/21 07:59:24;;;;;;;2.63;1.50;;;;;;;16.48;49.38;101233.66;5075234;28;20019;-47
2022/05/21 08:01:50;;;;;;;3.40;1.42;;;;;;;16.49;49.23;101229.16;5079287;28;20047;-48
2022/05/21 08:04:17;;;;;;;3.33;1.48;;;;;;;16.53;49.27;101220.00;5089561;28;20034;-46
2022/05/21 08:06:43;;;;;;;3.20;1.42;;;;;;;16.59;49.56;101214.22;5072204;28;20031;-46
2022/05/21 08:09:08;;;;;;;8.25;1.70;;;;;;;16.60;49.31;101229.19;5081147;28;20036;-47
2022/05/21 08:11:34;;;;;;;6.35;1.60;;;;;;;16.60;49.45;101227.41;5083287;28;20043;-46
2022/05/21 08:14:00;;;;;;;3.50;1.38;;;;;;;16.67;49.41;101232.22;5084083;28;20031;-48
2022/05/21 08:16:26;;;;;;;4.60;1.40;;;;;;;16.65;49.44;101235.03;5090328;28;20106;-46
2022/05/21 08:18:51;;;;;;;3.75;1.30;;;;;;;16.68;49.24;101229.47;5079744;28;20125;-49
2022/05/21 08:21:17;;;;;;;4.38;1.98;;;;;;;16.67;49.23;101230.44;5085363;28;20043;-46
2022/05/21 08:29:11;;;;;;;4.22;1.60;;;;;;;16.61;49.63;101233.56;5081944;28;20039;-48
2022/05/21 08:31:36;;;;;;;3.83;1.80;;;;;;;16.67;49.78;101243.72;5083204;28;20032;-45
2022/05/21 08:34:02;;;;;;;6.15;1.50;;;;;;;16.80;49.82;101245.44;5086558;28;20472;-48
2022/05/21 08:36:28;;;;;;;4.35;1.27;;;;;;;16.86;49.68;101245.00;5086154;28;20031;-48
2022/05/21 08:38:53;;;;;;;3.63;1.30;;;;;;;16.89;49.26;101248.25;5081658;28;20032;-46
2022/05/21 08:41:31;;;;;;;3.75;1.52;;;;;;;16.94;49.03;101261.19;5085559;28;20032;-48
2022/05/21 08:44:05;;;;;;;3.72;1.30;;;;;;;16.90;48.78;101254.41;5094730;28;20020;-48
2022/05/21 08:46:31;;;;;;;3.08;1.67;;;;;;;16.84;48.88;101254.88;5081272;28;20043;-50
2022/05/21 08:49:04;;;;;;;3.67;1.60;;;;;;;16.88;49.03;101251.00;5091803;28;20484;-46
2022/05/21 08:51:42;;;;;;;4.15;1.30;;;;;;;16.87;49.00;101250.19;5083704;28;20107;-45
2022/05/21 08:54:08;;;;;;;6.20;1.48;;;;;;;16.87;49.21;101260.81;5087832;28;20399;-46
2022/05/21 08:56:36;;;;;;;2.83;1.38;;;;;;;16.90;48.97;101251.75;5082078;27;20479;-46
2022/05/21 08:59:08;;;;;;;3.03;1.42;;;;;;;16.83;48.76;101301.03;5084341;28;20028;-45
2022/05/21 09:01:37;;;;;;;6.43;1.60;;;;;;;16.75;48.78;101257.25;5083711;28;20093;-47
2022/05/21 09:04:03;;;;;;;3.78;1.35;;;;;;;16.74;48.78;101260.06;5090029;28;20082;-46
2022/05/21 09:06:36;;;;;;;3.45;1.63;;;;;;;16.76;49.09;101256.31;5086470;28;20020;-47
2022/05/21 09:09:39;;;;;;;2.05;1.25;;;;;;;16.90;48.98;101255.25;5084201;28;20445;-49
2022/05/21 09:12:18;;;;;;;2.80;1.50;;;;;;;17.01;48.71;101264.25;5086031;28;20043;-45
2022/05/21 09:14:47;;;;;;;1.92;1.25;;;;;;;17.04;48.72;101270.16;5082283;28;20150;-48
2022/05/21 09:17:18;;;;;;;2.85;1.67;;;;;;;17.04;48.92;101277.31;5079420;28;20085;-50
2022/05/21 09:19:48;;;;;;;3.08;1.42;;;;;;;17.05;49.23;101273.69;5079623;28;20126;-49
2022/05/21 09:22:15;;;;;;;2.42;1.50;;;;;;;17.06;49.53;101275.38;5076203;28;21686;-45
2022/05/21 09:24:41;;;;;;;8.25;1.90;;;;;;;17.12;49.52;101290.84;5078348;28;20454;-47
2022/05/21 09:27:33;;;;;;;2.58;1.40;;;;;;;17.15;49.63;101274.66;5085058;28;20483;-45
2022/05/21 09:30:26;;;;;;;3.75;1.50;;;;;;;17.09;49.51;101266.31;5078279;28;20032;-50
2022/05/21 09:32:57;;;;;;;4.95;1.50;;;;;;;17.05;49.77;101269.19;5087203;28;20028;-48
2022/05/21 09:35:29;;;;;;;3.97;1.50;;;;;;;17.06;49.78;101265.59;5076651;28;20475;-48
2022/05/21 09:37:55;;;;;;;5.65;1.60;;;;;;;17.08;49.71;101261.97;5083066;28;20036;-45
2022/05/21 09:40:34;;;;;;;4.70;2.00;;;;;;;17.11;49.84;101267.88;5078764;28;20044;-45
2022/05/21 09:45:46;;;;;;;3.13;1.60;;;;;;;17.00;49.94;101262.56;5079545;28;20288;-47
2022/05/21 09:48:11;;;;;;;5.85;1.40;;;;;;;17.03;50.02;101265.81;5080586;28;20035;-47
2022/05/21 09:50:47;;;;;;;4.78;1.50;;;;;;;16.99;50.41;101274.16;5081897;28;20020;-47
2022/05/21 09:53:36;;;;;;;3.38;1.60;;;;;;;16.94;50.67;101274.47;5079697;28;20077;-47
2022/05/21 09:56:06;;;;;;;6.82;1.83;;;;;;;16.97;50.78;101276.94;5082165;28;20491;-46
2022/05/21 09:58:35;;;;;;;8.73;2.50;;;;;;;16.99;51.09;101271.50;5081933;28;20491;-46
2022/05/21 10:01:01;;;;;;;3.60;1.88;;;;;;;16.91;51.48;101298.63;5085728;28;20036;-49
2022/05/21 10:03:45;;;;;;;5.68;2.20;;;;;;;16.84;51.81;101273.50;5086231;28;20035;-46
2022/05/21 10:06:53;;;;;;;3.97;2.17;;;;;;;16.77;52.08;101312.97;5084772;28;20020;-48
2022/05/21 10:12:19;;;;;;;4.13;1.88;;;;;;;16.74;52.62;101278.66;5089865;28;20101;-47
2022/05/21 10:15:03;;;;;;;3.88;2.05;;;;;;;16.72;52.80;101273.44;5090196;28;20387;-52
2022/05/21 10:17:33;;;;;;;4.35;2.05;;;;;;;16.68;52.99;101281.75;5087087;28;20028;-49
2022/05/21 10:20:31;;;;;;;5.30;2.30;;;;;;;16.64;53.25;101294.44;5084388;28;20077;-48
2022/05/21 10:23:18;;;;;;;3.63;1.60;;;;;;;16.69;53.09;101283.44;5080242;28;20451;-45
2022/05/21 10:25:49;;;;;;;2.92;1.90;;;;;;;16.73;53.07;101285.75;5080224;28;20633;-45
2022/05/21 10:28:26;;;;;;;3.75;2.03;;;;;;;16.79;53.06;101299.56;5078859;28;20059;-49
2022/05/21 10:30:59;;;;;;;4.18;2.00;;;;;;;16.80;52.94;101275.50;5084596;28;20062;-47
2022/05/21 10:33:30;;;;;;;3.78;2.10;;;;;;;16.80;53.20;101261.38;5083239;28;20491;-46
2022/05/21 10:36:33;;;;;;;4.35;2.25;;;;;;;16.85;53.15;101251.25;5087760;28;20032;-45
2022/05/21 10:39:38;;;;;;;6.30;3.47;;;;;;;16.98;52.96;101257.38;5085524;28;20035;-46
2022/05/21 10:42:07;;;;;;;5.43;2.70;;;;;;;17.15;52.85;101257.88;5087381;28;20396;-48
2022/05/21 10:45:11;;;;;;;5.18;2.60;;;;;;;17.36;52.53;101255.34;5085195;28;20028;-45
2022/05/21 10:47:52;;;;;;;4.72;2.58;;;;;;;17.52;51.87;101260.28;5076058;28;20040;-48
2022/05/21 10:50:21;;;;;;;4.53;2.63;;;;;;;17.61;51.90;101258.72;5090996;28;20024;-49
2022/05/21 10:52:52;;;;;;;3.92;2.45;;;;;;;17.66;51.63;101267.19;5091042;28;20020;-46
2022/05/21 10:55:40;;;;;;;6.63;3.30;;;;;;;17.69;51.48;101266.97;5090371;28;20054;-46
2022/05/21 10:58:25;;;;;;;5.13;3.05;;;;;;;17.72;50.93;101261.38;5092079;28;20024;-47
2022/05/21 11:01:16;;;;;;;8.32;3.03;;;;;;;17.76;50.53;101272.63;5091848;28;20024;-49
2022/05/21 11:04:01;;;;;;;5.57;2.42;;;;;;;17.77;50.86;101251.22;5089216;28;20936;-45
2022/05/21 11:07:01;;;;;;;3.67;2.53;;;;;;;17.91;50.29;101276.72;5092076;28;20052;-46
2022/05/21 11:09:41;;;;;;;5.32;2.83;;;;;;;18.05;49.96;101234.84;5089255;28;20017;-51
2022/05/21 11:12:20;;;;;;;6.07;2.63;;;;;;;18.15;49.58;101235.78;5087254;28;20039;-46
2022/05/21 11:14:54;;;;;;;7.43;2.80;;;;;;;18.27;49.12;101249.91;5079837;28;20028;-46
2022/05/21 11:17:29;;;;;;;5.88;2.80;;;;;;;18.34;48.56;101244.91;5089350;28;20376;-48
2022/05/21 11:20:15;;;;;;;5.68;2.75;;;;;;;18.27;48.45;101253.41;5088763;28;20541;-46
2022/05/21 11:22:52;;;;;;;7.07;2.22;;;;;;;18.30;48.69;101232.81;5084813;28;20081;-49
2022/05/21 11:25:27;;;;;;;4.53;2.42;;;;;;;18.40;49.01;101228.41;5086315;28;20071;-48
2022/05/21 11:28:16;;;;;;;5.05;2.42;;;;;;;18.52;48.68;101232.75;5086334;28;20032;-49
2022/05/21 11:30:41;;;;;;;6.88;2.70;;;;;;;18.61;48.37;101241.75;5082078;28;20035;-49
2022/05/21 11:37:20;;;;;;;8.57;2.88;;;;;;;18.59;47.83;101217.91;5081037;28;20128;-47
2022/05/21 11:39:07;;;;;;;5.25;3.03;;;;;;;18.62;47.34;101223.94;5083108;28;20062;-46
2022/05/21 11:41:54;;;;;;;6.13;2.70;;;;;;;18.65;47.58;101231.69;5084614;28;20664;-45
2022/05/21 11:47:05;;;;;;;4.47;2.95;;;;;;;18.62;47.09;101221.28;5076520;28;20181;-47
2022/05/21 11:49:43;;;;;;;4.30;2.42;;;;;;;18.57;47.11;101249.16;5081885;28;20458;-46
2022/05/21 11:52:27;;;;;;;7.90;2.97;;;;;;;18.58;47.20;101216.22;5086018;28;20051;-45
2022/05/21 11:54:58;;;;;;;34.80;8.25;;;;;;;18.56;47.27;101206.66;5089713;28;20039;-46
2022/05/21 11:57:33;;;;;;;9.43;2.53;;;;;;;18.66;47.37;101217.41;5089303;28;20043;-45